Portada
METAR-TAF:

METAR-TAF

Aeroports :

Aeroport de Sant Sebastià

Sant Sebastià, Espanya

latitud: 43-21N, longitud: 001-48W, altitud: 5 m

Observació

L'informe es va fer fa 37 minuts, a les 12:00 UTC
Vent 5 kt del Nord, variant entre Nord-Oest i Nord-Est
Temperatura 26°C
Humitat 70%
Pressió 1015 hPa
Visibilitat 10 km o més
sense núvols per sota de 1500 mi sense presència de cumulonimbus.

METAR: LESO 171200Z 36005KT 320V050 CAVOK 26/20 Q1015

Hora: 14:37 (12:37 UTC)

Pronòstic

L'informe es va fer fa 1 hora i 37 minuts, a les 11:00 UTC
Pronòstic vàlid del 17 a les 12 UTC al 18 a les 12 UTC
Vent 8 kt del Nord/Nord-Est
Visibilitat 10 km o més
sense núvols per sota de 1500 mi sense presència de cumulonimbus.

TAF: LESO 171100Z 1712/1812 02008KT CAVOK TX27/1714Z TN17/1806Z

Observacions i pronòstics meteorològics de més de 4000 aeroports (METAR i TAF).

Les estacions disponibles són els punts grocs i vermells al mapa.

Posi el ratolí al punt desitjat per veure el nom de l'estació.

Feu clic per veure les observacions i els pronòstics meteorològics.

Per canviar el mapa: feu clic els botons verds amb una creu de color negre per apropar; al botó verd amb un guió per allunyar la imatge; o en les fletxes verdes per a mapes adjacents.


METAR-TAF: